Time;durP1;ratioP1;P1;durP2;ratioP2;P2;SDS_P1;SDS_P2;PMS_P1;PMS_P2;Temp;Humidity;BMP_temperature;BMP_pressure;BME280_temperature;BME280_humidity;BME280_pressure;Samples;Min_cycle;Max_cycle;Signal;HPM_P1;HPM_P2
2022/11/07 00:00:26;;;;;;;1.53;1.10;;;;;;;11.67;55.32;95550.19;5031250;28;20202;-84
2022/11/07 00:02:52;;;;;;;1.47;0.97;;;;;;;11.70;55.11;95552.41;5031128;28;20202;-83
2022/11/07 00:05:19;;;;;;;1.70;1.10;;;;;;;11.70;55.16;95563.53;5031830;28;20194;-85
2022/11/07 00:07:45;;;;;;;1.33;1.10;;;;;;;11.71;55.01;95557.38;5031240;28;20201;-83
2022/11/07 00:10:12;;;;;;;1.10;1.00;;;;;;;11.75;55.31;95563.75;5030566;28;20213;-83
2022/11/07 00:12:40;;;;;;;1.00;1.00;;;;;;;11.75;55.15;95565.53;5029582;28;20669;-83
2022/11/07 00:15:07;;;;;;;1.10;1.00;;;;;;;11.78;55.52;95565.19;5030427;28;20549;-86
2022/11/07 00:17:33;;;;;;;2.83;1.27;;;;;;;11.79;55.46;95563.41;5030426;28;20200;-84
2022/11/07 00:19:59;;;;;;;0.80;0.80;;;;;;;11.75;55.62;95565.53;5030353;28;20210;-83
2022/11/07 00:22:26;;;;;;;1.20;1.10;;;;;;;11.64;55.37;95564.25;5030703;28;20194;-85
2022/11/07 00:24:52;;;;;;;1.07;0.97;;;;;;;11.61;55.35;95564.63;5030752;28;20222;-83
2022/11/07 00:27:19;;;;;;;1.20;1.10;;;;;;;11.61;55.15;95559.44;5030818;28;20198;-86
2022/11/07 00:29:47;;;;;;;0.90;0.90;;;;;;;11.60;54.86;95567.38;5029092;28;20214;-85
2022/11/07 00:32:13;;;;;;;1.30;1.10;;;;;;;11.60;55.65;95559.63;5030276;28;20206;-86
2022/11/07 00:34:40;;;;;;;0.93;0.83;;;;;;;11.58;54.72;95559.81;5026317;28;20554;-85
2022/11/07 00:37:06;;;;;;;1.20;1.10;;;;;;;11.61;54.34;95574.13;5028888;28;20688;-83
2022/11/07 00:39:33;;;;;;;0.93;0.93;;;;;;;11.59;54.89;95571.72;5029284;28;20218;-86
2022/11/07 00:41:59;;;;;;;1.20;1.00;;;;;;;11.55;54.44;95574.84;5030002;28;20203;-82
2022/11/07 00:44:26;;;;;;;3.00;1.20;;;;;;;11.55;53.79;95582.59;5030426;28;20218;-83
2022/11/07 00:46:53;;;;;;;1.33;1.10;;;;;;;11.63;54.44;95588.44;5029443;28;20198;-85
2022/11/07 00:49:20;;;;;;;1.00;1.00;;;;;;;11.65;53.95;95588.25;5029477;28;20217;-85
2022/11/07 00:51:46;;;;;;;1.00;1.00;;;;;;;11.67;54.36;95588.88;5029570;28;20763;-83
2022/11/07 00:54:13;;;;;;;1.73;0.90;;;;;;;11.66;54.56;95589.84;5030041;28;20553;-82
2022/11/07 00:56:39;;;;;;;0.90;0.90;;;;;;;11.68;54.23;95595.63;5030422;28;20202;-86
2022/11/07 00:59:06;;;;;;;1.13;1.03;;;;;;;11.72;54.18;95597.69;5029451;28;20230;-85
2022/11/07 01:01:33;;;;;;;1.20;1.10;;;;;;;11.74;54.57;95598.25;5030736;28;20194;-82
2022/11/07 01:06:46;;;;;;;1.17;1.00;;;;;;;11.81;54.62;95600.94;5030328;28;20212;-84
2022/11/07 01:09:16;;;;;;;0.90;0.90;;;;;;;11.87;54.72;95602.00;5030097;28;20210;-83
2022/11/07 01:11:45;;;;;;;0.80;0.80;;;;;;;11.87;55.00;95602.00;5031680;28;20194;-84
2022/11/07 01:14:17;;;;;;;1.00;0.90;;;;;;;11.88;55.43;95606.19;5030069;28;20186;-84
2022/11/07 01:16:44;;;;;;;2.60;1.00;;;;;;;11.86;55.45;95601.22;5031784;28;20202;-84
2022/11/07 01:19:12;;;;;;;1.07;0.97;;;;;;;11.89;56.06;95608.59;5031548;28;20213;-83
2022/11/07 01:21:39;;;;;;;1.00;1.00;;;;;;;11.95;55.79;95614.78;5030481;28;20696;-83
2022/11/07 01:24:08;;;;;;;1.10;1.00;;;;;;;11.96;55.98;95613.78;5031389;28;20218;-84
2022/11/07 01:26:35;;;;;;;1.10;1.00;;;;;;;11.91;55.71;95618.72;5031958;28;20198;-83
2022/11/07 01:29:02;;;;;;;1.20;1.00;;;;;;;12.01;55.75;95616.63;5029549;28;20684;-84
2022/11/07 01:31:30;;;;;;;1.33;1.07;;;;;;;12.05;56.61;95621.25;5031166;28;20592;-85
2022/11/07 01:33:56;;;;;;;0.97;0.80;;;;;;;12.04;57.90;95629.16;5030743;28;20630;-83
2022/11/07 01:36:24;;;;;;;3.00;1.10;;;;;;;11.96;59.86;95626.69;5024576;28;20572;-83
2022/11/07 01:38:51;;;;;;;1.43;1.20;;;;;;;11.94;60.90;95619.13;5030305;28;20236;-83
2022/11/07 01:41:21;;;;;;;1.50;1.07;;;;;;;11.95;61.49;95625.09;5031177;28;20194;-85
2022/11/07 01:43:50;;;;;;;1.40;1.30;;;;;;;11.95;61.91;95623.31;5031058;28;20222;-82
2022/11/07 01:46:18;;;;;;;1.27;1.07;;;;;;;11.96;62.19;95622.31;5029931;28;20202;-83
2022/11/07 01:48:49;;;;;;;1.30;1.20;;;;;;;11.94;62.17;95633.81;5026778;28;20218;-82
2022/11/07 01:51:17;;;;;;;3.77;1.20;;;;;;;11.91;62.64;95627.25;5028460;28;20195;-86
2022/11/07 01:53:46;;;;;;;1.20;1.00;;;;;;;11.89;62.25;95639.53;5029888;28;20213;-82
2022/11/07 01:56:16;;;;;;;1.20;1.00;;;;;;;11.86;62.24;95639.09;5029763;28;20205;-83
2022/11/07 01:58:44;;;;;;;2.10;1.10;;;;;;;11.82;61.94;95624.97;5030226;28;20225;-84
2022/11/07 02:01:10;;;;;;;1.03;1.00;;;;;;;11.84;61.27;95626.38;5030084;28;20198;-84
2022/11/07 02:03:37;;;;;;;1.10;0.90;;;;;;;11.82;61.01;95635.28;5024804;28;20210;-85
2022/11/07 02:06:08;;;;;;;1.90;0.87;;;;;;;11.82;60.97;95632.72;5027869;28;20209;-85
2022/11/07 02:08:39;;;;;;;0.90;0.90;;;;;;;11.87;61.03;95628.59;5028813;28;20234;-86
2022/11/07 02:11:08;;;;;;;1.07;1.00;;;;;;;11.88;60.93;95640.53;5032162;28;20225;-84
2022/11/07 02:13:35;;;;;;;0.87;0.83;;;;;;;11.83;61.29;95642.84;5032503;28;20202;-83
2022/11/07 02:16:03;;;;;;;2.27;1.20;;;;;;;11.88;61.78;95637.16;5032358;28;20650;-83
2022/11/07 02:18:30;;;;;;;1.10;0.90;;;;;;;11.88;61.95;95640.53;5034860;28;20218;-82
2022/11/07 02:21:03;;;;;;;0.77;0.77;;;;;;;11.90;62.34;95640.34;5038292;28;20209;-84
2022/11/07 02:23:39;;;;;;;0.90;0.90;;;;;;;11.89;62.68;95631.00;5032750;28;20187;-83
2022/11/07 02:26:07;;;;;;;1.33;0.93;;;;;;;11.86;62.93;95634.75;5038862;28;20591;-83
2022/11/07 02:28:37;;;;;;;1.13;1.03;;;;;;;11.85;63.70;95638.31;5038003;28;20210;-85
2022/11/07 02:31:03;;;;;;;1.10;1.00;;;;;;;11.84;64.26;95623.00;5037717;28;20202;-83
2022/11/07 02:33:30;;;;;;;1.27;1.00;;;;;;;11.80;64.72;95632.09;5034012;28;20206;-86
2022/11/07 02:35:57;;;;;;;2.63;1.23;;;;;;;11.79;65.11;95631.28;5034086;28;20194;-82
2022/11/07 02:38:26;;;;;;;1.00;0.90;;;;;;;11.74;65.96;95625.84;5034115;28;20248;-83
2022/11/07 02:40:56;;;;;;;1.43;0.90;;;;;;;11.77;66.20;95631.47;5034650;28;20201;-83
2022/11/07 02:43:28;;;;;;;1.17;0.90;;;;;;;11.75;66.82;95635.16;5035345;28;20194;-85
2022/11/07 02:45:57;;;;;;;2.07;0.93;;;;;;;11.73;67.04;95627.66;5033973;28;20222;-84
2022/11/07 02:48:28;;;;;;;1.50;1.00;;;;;;;11.76;66.83;95634.22;5033660;28;20222;-83
2022/11/07 02:50:55;;;;;;;1.30;1.10;;;;;;;11.70;67.32;95627.22;5034211;28;20186;-84
2022/11/07 02:53:21;;;;;;;1.77;1.03;;;;;;;11.69;67.86;95641.06;5034406;28;20214;-83
2022/11/07 02:55:48;;;;;;;1.20;1.10;;;;;;;11.70;67.86;95637.53;5036798;28;20205;-83
2022/11/07 02:58:14;;;;;;;1.10;1.00;;;;;;;11.74;67.37;95631.78;5035881;28;20218;-83
2022/11/07 03:00:42;;;;;;;0.90;0.90;;;;;;;11.71;67.80;95636.53;5029170;28;20210;-82
2022/11/07 03:03:08;;;;;;;1.23;1.00;;;;;;;11.70;67.85;95635.75;5034368;28;20206;-85
2022/11/07 03:05:38;;;;;;;1.20;1.10;;;;;;;11.63;68.21;95634.84;5035364;28;20229;-82
2022/11/07 03:08:05;;;;;;;1.10;1.00;;;;;;;11.67;68.16;95640.47;5035922;28;20225;-82
2022/11/07 03:10:31;;;;;;;1.27;0.90;;;;;;;11.67;68.06;95636.09;5036288;28;20202;-82
2022/11/07 03:12:58;;;;;;;1.00;1.00;;;;;;;11.69;67.90;95633.34;5035813;28;20202;-84
2022/11/07 03:15:24;;;;;;;1.10;1.00;;;;;;;11.71;68.11;95633.97;5036430;28;20221;-83
2022/11/07 03:17:52;;;;;;;2.70;1.00;;;;;;;11.72;68.29;95638.13;5035069;28;20202;-83
2022/11/07 03:20:19;;;;;;;1.20;1.10;;;;;;;11.69;68.65;95643.66;5033796;28;20197;-83
2022/11/07 03:22:46;;;;;;;1.27;1.00;;;;;;;11.72;68.22;95638.94;5036279;28;20202;-84
2022/11/07 03:25:13;;;;;;;1.20;1.10;;;;;;;11.71;68.08;95644.28;5035485;28;20302;-83
2022/11/07 03:27:46;;;;;;;1.07;1.00;;;;;;;11.74;68.20;95654.22;5034679;28;20205;-84
2022/11/07 03:30:12;;;;;;;1.07;1.00;;;;;;;11.71;68.17;95645.06;5034522;28;20206;-83
2022/11/07 03:32:39;;;;;;;1.13;1.07;;;;;;;11.73;68.34;95647.47;5034530;28;20214;-84
2022/11/07 03:35:08;;;;;;;1.07;0.90;;;;;;;11.73;68.68;95650.06;5032909;28;20210;-85
2022/11/07 03:37:34;;;;;;;1.67;1.33;;;;;;;11.72;68.21;95644.09;5032396;28;20201;-84
2022/11/07 03:40:01;;;;;;;1.60;1.03;;;;;;;11.72;68.38;95644.09;5032599;28;20202;-84
2022/11/07 03:42:27;;;;;;;1.87;1.33;;;;;;;11.68;68.68;95649.78;5032978;28;20201;-84
2022/11/07 03:44:54;;;;;;;1.70;0.90;;;;;;;11.66;68.97;95649.97;5033047;28;20220;-83
2022/11/07 03:47:20;;;;;;;1.53;1.20;;;;;;;11.69;68.72;95648.81;5033170;28;20206;-85
2022/11/07 03:49:47;;;;;;;1.63;1.20;;;;;;;11.62;69.04;95653.88;5022794;28;20245;-82
2022/11/07 03:52:15;;;;;;;1.27;1.10;;;;;;;11.62;68.87;95645.34;5032664;28;20198;-84
2022/11/07 03:54:41;;;;;;;1.10;1.00;;;;;;;11.66;69.07;95659.50;5033636;28;20201;-83
2022/11/07 03:57:10;;;;;;;1.10;1.00;;;;;;;11.61;68.97;95646.34;5018991;28;20222;-84
2022/11/07 03:59:37;;;;;;;1.23;1.13;;;;;;;11.66;68.96;95659.50;5027869;28;20222;-84
2022/11/07 04:02:03;;;;;;;1.60;1.13;;;;;;;11.65;68.83;95665.63;5033585;28;20198;-84
2022/11/07 04:04:30;;;;;;;1.40;1.30;;;;;;;11.64;69.04;95669.19;5027167;28;20218;-84
2022/11/07 04:06:56;;;;;;;1.03;1.03;;;;;;;11.67;68.55;95676.56;5033159;28;20198;-83
2022/11/07 04:09:24;;;;;;;1.37;1.10;;;;;;;11.64;68.78;95675.16;5032705;28;20217;-83
2022/11/07 04:17:19;;;;;;;1.10;1.00;;;;;;;11.61;68.78;95667.75;5032307;28;20204;-83
2022/11/07 04:19:46;;;;;;;1.10;1.00;;;;;;;11.60;68.63;95675.69;5032493;28;20596;-83
2022/11/07 04:22:12;;;;;;;1.20;1.10;;;;;;;11.64;68.85;95679.50;5032470;28;20199;-83
2022/11/07 04:24:40;;;;;;;1.30;1.20;;;;;;;11.68;68.62;95681.53;5032660;28;20222;-84
2022/11/07 04:29:53;;;;;;;1.17;1.07;;;;;;;11.58;68.71;95681.00;5032287;28;20288;-84
2022/11/07 04:32:20;;;;;;;1.47;1.20;;;;;;;11.61;68.03;95677.28;5030944;28;20208;-83
2022/11/07 04:34:46;;;;;;;1.17;1.07;;;;;;;11.56;68.44;95677.00;5032413;28;20201;-83
2022/11/07 04:37:13;;;;;;;1.20;1.10;;;;;;;11.55;68.37;95678.00;5032005;28;20194;-84
2022/11/07 04:39:41;;;;;;;1.20;1.10;;;;;;;11.52;68.38;95684.34;5024205;28;20222;-82
2022/11/07 04:42:07;;;;;;;1.20;1.10;;;;;;;11.53;68.46;95685.94;5032402;28;20381;-86
2022/11/07 04:44:34;;;;;;;2.50;1.10;;;;;;;11.53;68.28;95690.28;5033348;28;20229;-83
2022/11/07 04:47:00;;;;;;;0.97;0.97;;;;;;;11.55;68.32;95683.94;5032441;28;20198;-83
2022/11/07 04:49:27;;;;;;;1.20;1.10;;;;;;;11.56;67.81;95679.59;5031588;28;20218;-83
2022/11/07 04:51:55;;;;;;;1.30;1.20;;;;;;;11.55;68.20;95681.38;5031789;28;20210;-84
2022/11/07 04:54:22;;;;;;;1.37;1.27;;;;;;;11.53;67.68;95685.13;5018292;28;20236;-83
2022/11/07 04:56:50;;;;;;;1.30;1.10;;;;;;;11.53;68.13;95692.88;5031890;28;20202;-84
2022/11/07 04:59:16;;;;;;;1.20;1.10;;;;;;;11.49;67.79;95695.00;5030840;28;20225;-86
2022/11/07 05:01:43;;;;;;;1.30;1.20;;;;;;;11.45;68.26;95696.31;5032279;28;20199;-84
2022/11/07 05:04:09;;;;;;;1.57;1.10;;;;;;;11.41;68.51;95689.91;5030510;28;20206;-84
2022/11/07 05:06:37;;;;;;;1.50;1.40;;;;;;;11.40;68.16;95694.28;5031363;28;20740;-84
2022/11/07 05:09:04;;;;;;;2.40;1.20;;;;;;;11.38;68.42;95698.00;5030406;28;20719;-83
2022/11/07 05:11:32;;;;;;;1.80;1.50;;;;;;;11.35;68.74;95699.16;5031048;28;20210;-83
2022/11/07 05:14:00;;;;;;;1.73;1.50;;;;;;;11.32;68.41;95707.28;5030832;28;20256;-84
2022/11/07 05:16:28;;;;;;;1.90;1.40;;;;;;;11.31;68.72;95705.69;5029062;28;20198;-84
2022/11/07 05:18:55;;;;;;;1.60;1.50;;;;;;;11.31;68.65;95713.41;5029177;28;20688;-83
2022/11/07 05:21:23;;;;;;;1.40;1.30;;;;;;;11.28;68.49;95711.19;5028989;28;20202;-83
2022/11/07 05:23:48;;;;;;;1.70;1.60;;;;;;;11.26;68.88;95715.72;5029770;28;20229;-84
2022/11/07 05:26:17;;;;;;;1.87;1.70;;;;;;;11.27;68.98;95717.31;5029029;28;20300;-84
2022/11/07 05:28:43;;;;;;;1.43;1.30;;;;;;;11.24;69.20;95717.66;5028736;28;20932;-83
2022/11/07 05:31:16;;;;;;;2.00;1.23;;;;;;;11.20;69.33;95721.56;5029894;28;20628;-83
2022/11/07 05:33:43;;;;;;;1.63;1.40;;;;;;;11.19;69.06;95721.72;5029891;28;20712;-83
2022/11/07 05:36:11;;;;;;;1.93;1.73;;;;;;;11.19;69.32;95721.72;5030248;28;20222;-84
2022/11/07 05:38:40;;;;;;;1.97;1.60;;;;;;;11.10;69.83;95717.66;5030741;28;20223;-83
2022/11/07 05:41:09;;;;;;;1.57;1.47;;;;;;;11.05;69.74;95716.41;5031664;28;20198;-84
2022/11/07 05:43:36;;;;;;;1.33;1.23;;;;;;;11.01;69.80;95722.06;5032565;28;20213;-83
2022/11/07 05:46:08;;;;;;;1.33;1.23;;;;;;;11.00;70.08;95723.84;5029476;28;20222;-82
2022/11/07 05:48:36;;;;;;;1.40;1.30;;;;;;;11.04;70.10;95727.69;5030328;28;20234;-83
2022/11/07 05:51:04;;;;;;;2.37;1.33;;;;;;;11.04;69.56;95730.25;5024176;28;20203;-83
2022/11/07 05:53:30;;;;;;;1.50;1.40;;;;;;;11.06;70.01;95728.31;5016831;28;20217;-84
2022/11/07 05:55:57;;;;;;;1.63;1.50;;;;;;;11.04;69.81;95726.88;5016122;28;20215;-83
2022/11/07 05:58:24;;;;;;;1.90;1.60;;;;;;;11.06;69.65;95738.63;5024170;28;20234;-83
2022/11/07 06:00:50;;;;;;;1.67;1.50;;;;;;;11.02;69.50;95732.19;5037924;28;20288;-84
2022/11/07 06:03:18;;;;;;;2.27;1.63;;;;;;;11.00;69.67;95734.16;5038212;28;20213;-83
2022/11/07 06:05:46;;;;;;;2.00;1.70;;;;;;;11.01;69.75;95740.09;5020546;28;20226;-84
2022/11/07 06:08:14;;;;;;;2.20;1.60;;;;;;;11.02;69.40;95734.78;5018779;28;20229;-84
2022/11/07 06:10:42;;;;;;;1.63;1.50;;;;;;;11.04;69.03;95732.84;5019073;28;20692;-84
2022/11/07 06:13:11;;;;;;;1.80;1.70;;;;;;;11.03;68.92;95736.38;5017652;28;20217;-84
2022/11/07 06:15:38;;;;;;;1.90;1.70;;;;;;;11.05;68.91;95734.44;5016636;28;20202;-83
2022/11/07 06:18:08;;;;;;;1.67;1.57;;;;;;;11.00;68.49;95738.50;5024451;28;20252;-83
2022/11/07 06:20:35;;;;;;;2.47;1.50;;;;;;;10.97;68.08;95738.84;5037609;28;20210;-83
2022/11/07 06:23:05;;;;;;;1.67;1.57;;;;;;;10.93;68.47;95743.56;5037834;28;20198;-84
2022/11/07 06:25:32;;;;;;;2.13;1.93;;;;;;;10.90;68.12;95750.84;5034110;28;20233;-82
2022/11/07 06:28:00;;;;;;;2.27;1.60;;;;;;;10.87;68.37;95746.03;5033538;28;20203;-84
2022/11/07 06:30:27;;;;;;;2.53;1.53;;;;;;;10.88;68.25;95751.00;5033232;28;20210;-84
2022/11/07 06:32:54;;;;;;;1.90;1.80;;;;;;;10.87;68.12;95748.59;5033729;28;20206;-83
2022/11/07 06:35:22;;;;;;;3.07;2.10;;;;;;;10.88;68.25;95742.50;5033792;28;20202;-82
2022/11/07 06:37:49;;;;;;;2.83;1.73;;;;;;;10.93;68.38;95743.56;5033200;28;20199;-83
2022/11/07 06:40:17;;;;;;;1.90;1.63;;;;;;;10.95;68.26;95748.56;5034095;28;20233;-84
2022/11/07 06:42:43;;;;;;;4.40;1.80;;;;;;;10.96;67.91;95743.22;5034229;28;20711;-83
2022/11/07 06:45:17;;;;;;;1.63;1.53;;;;;;;10.95;67.78;95754.50;5033154;28;20779;-83
2022/11/07 06:47:43;;;;;;;2.30;1.80;;;;;;;11.08;67.73;95749.56;5027804;28;20194;-85
2022/11/07 06:50:10;;;;;;;3.67;1.90;;;;;;;11.51;66.86;95756.69;5034134;28;20521;-83
2022/11/07 06:52:36;;;;;;;3.50;1.67;;;;;;;12.02;65.12;95758.38;5034080;28;20222;-82
2022/11/07 06:55:03;;;;;;;2.77;1.83;;;;;;;12.52;62.85;95761.06;5033599;28;20208;-82
2022/11/07 06:57:31;;;;;;;2.27;2.07;;;;;;;12.94;61.09;95766.22;5033605;28;20209;-82
2022/11/07 06:59:58;;;;;;;1.90;1.70;;;;;;;13.36;60.87;95773.16;5033650;28;20225;-83
2022/11/07 07:02:24;;;;;;;3.27;1.47;;;;;;;13.64;58.51;95773.13;5033153;28;20202;-86
2022/11/07 07:04:51;;;;;;;1.70;1.60;;;;;;;13.93;58.55;95768.69;5014529;28;20609;-83
2022/11/07 07:07:17;;;;;;;1.83;1.53;;;;;;;14.07;57.68;95772.91;5014095;28;20570;-85
2022/11/07 07:09:44;;;;;;;1.80;1.70;;;;;;;14.07;57.64;95771.13;5014174;28;20226;-84
2022/11/07 07:12:11;;;;;;;3.13;1.63;;;;;;;14.07;56.74;95772.91;5016452;28;20202;-82
2022/11/07 07:14:38;;;;;;;1.70;1.40;;;;;;;13.96;56.41;95776.06;5024987;28;20264;-83
2022/11/07 07:17:05;;;;;;;1.60;1.50;;;;;;;13.80;57.09;95783.16;5034916;28;20201;-82
2022/11/07 07:19:32;;;;;;;2.10;1.77;;;;;;;13.58;57.89;95788.63;5034304;28;20849;-84
2022/11/07 07:21:58;;;;;;;1.63;1.53;;;;;;;13.41;57.81;95783.72;5035292;28;20202;-85
2022/11/07 07:24:25;;;;;;;1.60;1.50;;;;;;;13.28;58.31;95788.78;5036882;28;20229;-83
2022/11/07 07:26:52;;;;;;;2.83;1.30;;;;;;;13.27;58.05;95784.63;5034699;28;20226;-83
2022/11/07 07:29:18;;;;;;;1.90;1.80;;;;;;;13.29;58.30;95784.41;5034072;28;20245;-87
2022/11/07 07:31:46;;;;;;;1.73;1.47;;;;;;;13.38;58.35;95778.94;5033733;28;20217;-83
2022/11/07 07:34:13;;;;;;;2.23;1.23;;;;;;;13.47;57.78;95784.75;5034215;28;20209;-86
2022/11/07 07:36:39;;;;;;;1.67;1.50;;;;;;;13.56;57.97;95788.78;5034942;28;20649;-82
2022/11/07 07:39:06;;;;;;;2.33;1.47;;;;;;;13.62;57.86;95788.03;5034387;28;20276;-84
2022/11/07 07:41:32;;;;;;;2.90;1.70;;;;;;;13.75;57.48;95787.31;5029269;28;20210;-85
2022/11/07 07:43:59;;;;;;;3.10;1.67;;;;;;;13.83;56.95;95784.59;5029262;28;20198;-83
2022/11/07 07:46:26;;;;;;;2.13;1.40;;;;;;;13.92;56.72;95790.38;5033552;28;20222;-84
2022/11/07 07:48:54;;;;;;;1.77;1.30;;;;;;;14.13;56.30;95787.69;5034512;28;20599;-84
2022/11/07 07:51:20;;;;;;;1.23;1.13;;;;;;;14.38;55.86;95782.81;5035141;28;20208;-84
2022/11/07 07:53:49;;;;;;;1.60;1.30;;;;;;;14.54;55.71;95777.28;5033302;28;20214;-83
2022/11/07 07:56:16;;;;;;;2.60;1.40;;;;;;;14.73;55.27;95781.72;5033953;28;20233;-83
2022/11/07 07:58:43;;;;;;;1.58;1.38;;;;;;;14.96;54.98;95773.56;5031982;28;20716;-84
2022/11/07 08:01:10;;;;;;;1.83;1.23;;;;;;;15.13;54.60;95785.13;5032993;28;20206;-83
2022/11/07 08:03:40;;;;;;;1.92;1.70;;;;;;;15.15;53.97;95779.75;5032343;28;20816;-84
2022/11/07 08:06:08;;;;;;;1.70;1.45;;;;;;;15.26;53.89;95781.75;5032346;28;20226;-83
2022/11/07 08:08:34;;;;;;;2.40;1.27;;;;;;;15.30;53.37;95775.16;5031643;28;20233;-83
2022/11/07 08:11:02;;;;;;;1.35;1.23;;;;;;;15.47;53.56;95781.53;5031983;28;20193;-84
2022/11/07 08:13:29;;;;;;;2.75;1.50;;;;;;;15.45;52.62;95780.13;5032277;28;20213;-84
2022/11/07 08:15:55;;;;;;;1.58;1.48;;;;;;;15.46;53.37;95776.53;5031728;28;20206;-84
2022/11/07 08:18:23;;;;;;;1.50;1.40;;;;;;;15.46;53.35;95786.91;5031992;28;20233;-84
2022/11/07 08:20:49;;;;;;;3.50;1.60;;;;;;;15.43;52.98;95784.72;5032981;28;20213;-84
2022/11/07 08:23:18;;;;;;;1.52;1.20;;;;;;;15.46;52.88;95786.91;5031964;28;20198;-86
2022/11/07 08:25:51;;;;;;;4.45;3.03;;;;;;;15.52;52.85;95786.13;5030794;28;20222;-83
2022/11/07 08:28:19;;;;;;;2.92;1.40;;;;;;;15.60;53.18;95783.31;5030228;28;20233;-83
2022/11/07 08:30:46;;;;;;;1.25;1.15;;;;;;;15.73;53.08;95792.91;5031364;28;20198;-83
2022/11/07 08:33:12;;;;;;;1.95;1.30;;;;;;;15.74;52.46;95797.88;5031749;28;20203;-84
2022/11/07 08:35:41;;;;;;;2.03;1.38;;;;;;;15.87;53.48;95797.84;5031116;28;20894;-84
2022/11/07 08:38:07;;;;;;;1.55;1.45;;;;;;;15.89;52.26;95792.44;5021773;28;20226;-83
2022/11/07 08:40:35;;;;;;;1.58;1.20;;;;;;;15.93;52.05;95796.25;5030802;28;20221;-84
2022/11/07 08:43:02;;;;;;;1.20;1.10;;;;;;;15.94;51.75;95797.03;5031085;28;20726;-84
2022/11/07 08:45:28;;;;;;;1.55;1.40;;;;;;;15.98;51.23;95793.00;5030457;28;20210;-84
2022/11/07 08:47:58;;;;;;;1.58;1.08;;;;;;;16.05;50.93;95797.19;5030319;28;20221;-83
2022/11/07 08:50:25;;;;;;;1.20;1.10;;;;;;;16.22;51.04;95805.31;5031347;28;20198;-82
2022/11/07 08:52:51;;;;;;;1.20;1.10;;;;;;;16.44;51.53;95800.63;5030537;28;20206;-85
2022/11/07 08:55:18;;;;;;;2.25;1.02;;;;;;;16.38;50.11;95799.66;5031251;28;20210;-83
2022/11/07 08:57:46;;;;;;;1.17;1.08;;;;;;;16.39;49.75;95797.84;5030406;28;20580;-83
2022/11/07 09:00:13;;;;;;;1.10;1.00;;;;;;;16.32;50.12;95803.09;5030611;28;20209;-83
2022/11/07 09:02:40;;;;;;;1.55;1.02;;;;;;;16.33;50.32;95793.50;5030978;28;20576;-84
2022/11/07 09:05:07;;;;;;;1.27;1.10;;;;;;;16.41;50.31;95799.25;5042169;28;20685;-84
2022/11/07 09:07:37;;;;;;;1.42;1.17;;;;;;;16.43;50.10;95799.84;5050198;28;20252;-83
2022/11/07 09:10:03;;;;;;;1.20;1.10;;;;;;;16.53;50.19;95802.81;5050661;28;20248;-84
2022/11/07 09:12:30;;;;;;;1.45;0.90;;;;;;;16.56;49.91;95809.38;5050271;28;20205;-85
2022/11/07 09:14:58;;;;;;;1.35;1.00;;;;;;;16.48;49.56;95794.81;5038428;28;20207;-84
2022/11/07 09:17:24;;;;;;;1.33;1.00;;;;;;;16.53;49.40;95799.41;5030662;28;20202;-84
2022/11/07 09:19:51;;;;;;;1.92;0.95;;;;;;;16.73;49.50;95805.31;5029361;28;20222;-83
2022/11/07 09:22:17;;;;;;;2.42;1.60;;;;;;;16.79;48.94;95806.28;5029823;28;20576;-84
2022/11/07 09:24:43;;;;;;;1.65;1.02;;;;;;;16.77;48.71;95816.88;5029646;28;20887;-83
2022/11/07 09:27:10;;;;;;;1.38;1.00;;;;;;;16.69;48.77;95808.53;5029642;28;20228;-84
2022/11/07 09:29:36;;;;;;;1.17;1.08;;;;;;;16.68;48.87;95807.75;5028891;28;20241;-84
2022/11/07 09:32:04;;;;;;;2.70;1.00;;;;;;;16.79;48.92;95807.06;5029249;28;20194;-83
2022/11/07 09:34:31;;;;;;;3.92;1.00;;;;;;;17.02;49.70;95806.53;5029029;28;20213;-83
2022/11/07 09:36:57;;;;;;;1.52;1.13;;;;;;;17.12;48.82;95804.25;5021936;28;20205;-84
2022/11/07 09:39:24;;;;;;;1.25;1.10;;;;;;;16.99;48.38;95814.75;5029701;28;20222;-84
2022/11/07 09:41:58;;;;;;;2.20;1.00;;;;;;;16.92;48.84;95804.41;5029965;28;20693;-83
2022/11/07 09:44:45;;;;;;;2.25;0.93;;;;;;;16.90;49.01;95816.03;5030022;28;20600;-83
2022/11/07 09:47:19;;;;;;;2.22;1.67;;;;;;;16.86;49.08;95820.84;5030320;28;20213;-84
2022/11/07 09:49:49;;;;;;;1.20;1.00;;;;;;;16.72;49.22;95821.94;5030083;28;20225;-85
2022/11/07 09:52:22;;;;;;;1.83;1.00;;;;;;;16.67;49.31;95811.34;5029612;28;20210;-83
2022/11/07 09:54:53;;;;;;;2.35;0.90;;;;;;;16.68;49.05;95820.75;5030158;28;20194;-84
2022/11/07 09:57:20;;;;;;;1.73;1.00;;;;;;;16.76;49.25;95814.47;5029885;28;20198;-83
2022/11/07 09:59:52;;;;;;;1.33;1.02;;;;;;;16.89;48.86;95814.44;5029170;28;20257;-84
2022/11/07 10:02:24;;;;;;;1.40;0.80;;;;;;;16.85;48.70;95813.25;5029877;28;20187;-83
2022/11/07 10:04:55;;;;;;;2.10;1.00;;;;;;;16.95;49.49;95816.16;5029490;28;20866;-84
2022/11/07 10:07:30;;;;;;;1.05;0.90;;;;;;;16.90;48.68;95816.03;5029513;28;20226;-83
2022/11/07 10:10:05;;;;;;;1.63;1.10;;;;;;;16.89;48.58;95804.03;5029761;28;20222;-83
2022/11/07 10:12:46;;;;;;;2.63;1.20;;;;;;;16.97;48.73;95810.75;5028902;28;20225;-84
2022/11/07 10:15:22;;;;;;;5.20;1.75;;;;;;;16.83;48.53;95820.44;5029255;28;20561;-83
2022/11/07 10:18:01;;;;;;;1.45;0.88;;;;;;;16.66;49.33;95809.75;5029037;28;20198;-84
2022/11/07 10:20:41;;;;;;;0.80;0.80;;;;;;;16.67;49.47;95807.94;5029324;28;20198;-83
2022/11/07 10:23:21;;;;;;;2.35;0.98;;;;;;;16.87;49.84;95809.44;5029112;28;20194;-84
2022/11/07 10:25:52;;;;;;;1.42;0.90;;;;;;;16.95;49.29;95805.75;5030230;28;20198;-83
2022/11/07 10:28:22;;;;;;;2.70;0.98;;;;;;;17.05;49.35;95815.72;5028921;28;20233;-84
2022/11/07 10:30:51;;;;;;;2.13;0.80;;;;;;;17.20;48.86;95813.59;5025825;28;20215;-84
2022/11/07 10:33:37;;;;;;;1.30;1.00;;;;;;;17.28;48.31;95805.53;5031840;28;20723;-84
2022/11/07 10:36:11;;;;;;;3.17;1.00;;;;;;;17.28;48.47;95797.72;5033116;28;20206;-83
2022/11/07 10:38:41;;;;;;;2.60;1.25;;;;;;;17.09;48.70;95801.28;5032437;28;20312;-84
2022/11/07 10:41:20;;;;;;;2.35;1.05;;;;;;;17.03;48.86;95802.91;5032370;28;20209;-83
2022/11/07 10:43:51;;;;;;;2.40;0.90;;;;;;;17.03;48.52;95802.91;5012677;28;20696;-84
2022/11/07 10:46:21;;;;;;;0.93;0.93;;;;;;;17.15;48.49;95801.22;5012685;28;20210;-83
2022/11/07 10:48:56;;;;;;;2.38;2.10;;;;;;;17.08;48.26;95805.69;5012614;28;20277;-83
2022/11/07 10:51:36;;;;;;;1.17;1.08;;;;;;;17.05;48.47;95808.72;5012189;28;20201;-84
2022/11/07 10:54:04;;;;;;;1.05;0.82;;;;;;;16.95;48.28;95800.56;5012802;28;20206;-83
2022/11/07 10:56:30;;;;;;;2.13;1.02;;;;;;;16.92;48.81;95804.41;5035213;28;20859;-83
2022/11/07 10:58:57;;;;;;;1.48;1.10;;;;;;;16.99;48.66;95800.94;5031929;28;20233;-84
2022/11/07 11:01:25;;;;;;;2.55;1.10;;;;;;;16.96;48.72;95799.56;5032361;28;20203;-83
2022/11/07 11:03:52;;;;;;;1.13;0.82;;;;;;;16.97;48.58;95795.16;5032779;28;20213;-83
2022/11/07 11:06:30;;;;;;;1.75;0.80;;;;;;;16.95;48.26;95803.16;5032014;28;20226;-84
2022/11/07 11:08:56;;;;;;;1.55;1.00;;;;;;;16.71;48.43;95798.72;5033145;28;20222;-84
2022/11/07 11:11:34;;;;;;;2.78;1.00;;;;;;;16.69;48.69;95805.94;5033155;28;20217;-84
2022/11/07 11:14:03;;;;;;;1.55;1.00;;;;;;;16.72;48.97;95798.53;5028170;28;20199;-84
2022/11/07 11:16:33;;;;;;;6.43;4.80;;;;;;;16.77;49.33;95792.69;5012272;28;20693;-86
2022/11/07 11:19:01;;;;;;;3.28;2.72;;;;;;;16.82;49.28;95787.66;5012091;28;20223;-86
2022/11/07 11:21:41;;;;;;;3.70;1.60;;;;;;;16.72;49.49;95801.13;5012672;28;20656;-83
2022/11/07 11:24:14;;;;;;;3.17;1.30;;;;;;;16.69;49.37;95792.94;5012755;28;20825;-84
2022/11/07 11:26:43;;;;;;;1.30;0.90;;;;;;;16.65;50.05;95791.75;5022872;28;20218;-84
2022/11/07 11:29:14;;;;;;;2.63;1.10;;;;;;;16.65;49.60;95794.38;5027559;28;20272;-84
2022/11/07 11:31:45;;;;;;;1.77;0.90;;;;;;;16.70;49.42;95797.13;5031725;28;20182;-83
2022/11/07 11:34:24;;;;;;;1.33;0.90;;;;;;;16.76;49.61;95789.28;5032304;28;20191;-84
2022/11/07 11:37:01;;;;;;;1.30;0.88;;;;;;;16.81;49.39;95784.25;5032899;28;20206;-83
2022/11/07 11:39:35;;;;;;;1.88;1.08;;;;;;;16.82;49.13;95783.25;5032475;28;20229;-83
2022/11/07 11:42:03;;;;;;;1.27;0.90;;;;;;;16.89;49.08;95772.81;5032205;28;20198;-83
2022/11/07 11:44:35;;;;;;;0.95;0.95;;;;;;;16.70;49.14;95777.13;5033021;28;20209;-82
2022/11/07 11:47:12;;;;;;;2.10;1.70;;;;;;;16.70;49.51;95777.13;5032809;28;20210;-84
2022/11/07 11:49:48;;;;;;;5.95;4.72;;;;;;;16.76;49.75;95757.28;5032645;28;20248;-83